createdAt,value
2022-07-27T00:01:16.678Z,20.42
2022-07-27T00:03:45.522Z,20.26
2022-07-27T00:06:14.804Z,20.42
2022-07-27T00:08:42.575Z,20.07
2022-07-27T00:11:11.085Z,20.20
2022-07-27T00:13:39.014Z,20.02
2022-07-27T00:16:07.348Z,19.95
2022-07-27T00:18:35.587Z,20.26
2022-07-27T00:21:03.455Z,20.29
2022-07-27T00:23:31.198Z,20.14
2022-07-27T00:25:59.306Z,19.99
2022-07-27T00:28:27.065Z,20.06
2022-07-27T00:30:54.885Z,20.46
2022-07-27T00:33:23.216Z,20.13
2022-07-27T00:35:50.943Z,20.26
2022-07-27T00:38:18.765Z,19.94
2022-07-27T00:40:46.903Z,20.12
2022-07-27T00:43:15.453Z,20.18
2022-07-27T00:45:43.228Z,19.85
2022-07-27T00:48:11.399Z,20.08
2022-07-27T00:50:41.905Z,19.92
2022-07-27T00:53:10.002Z,19.35
2022-07-27T00:55:39.685Z,19.88
2022-07-27T00:58:11.047Z,19.81
2022-07-27T01:00:39.445Z,19.85
2022-07-27T01:03:09.012Z,18.91
2022-07-27T01:05:42.475Z,19.70
2022-07-27T01:08:14.332Z,19.97
2022-07-27T01:10:43.638Z,20.06
2022-07-27T01:13:13.162Z,19.58
2022-07-27T01:15:42.376Z,18.99
2022-07-27T01:18:27.124Z,19.68
2022-07-27T01:20:56.265Z,19.72
2022-07-27T01:23:25.524Z,19.20
2022-07-27T01:25:53.765Z,19.96
2022-07-27T01:28:21.973Z,19.72
2022-07-27T01:30:49.893Z,20.12
2022-07-27T01:33:17.864Z,19.84
2022-07-27T01:35:46.401Z,19.78
2022-07-27T01:38:14.119Z,19.80
2022-07-27T01:40:41.905Z,18.88
2022-07-27T01:43:10.267Z,19.18
2022-07-27T01:45:39.590Z,19.06
2022-07-27T01:48:07.304Z,19.47
2022-07-27T01:50:35.583Z,19.68
2022-07-27T01:53:03.435Z,19.42
2022-07-27T01:55:38.426Z,19.56
2022-07-27T01:58:08.405Z,19.51
2022-07-27T02:00:36.876Z,19.82
2022-07-27T02:03:07.040Z,19.64
2022-07-27T02:05:36.185Z,19.96
2022-07-27T02:08:05.975Z,19.45
2022-07-27T02:10:35.304Z,19.73
2022-07-27T02:13:22.922Z,19.87
2022-07-27T02:15:54.792Z,19.55
2022-07-27T02:18:33.001Z,19.52
2022-07-27T02:21:06.370Z,19.31
2022-07-27T02:23:35.310Z,19.31
2022-07-27T02:26:04.414Z,19.76
2022-07-27T02:28:32.946Z,19.63
2022-07-27T02:31:01.136Z,19.07
2022-07-27T02:33:29.047Z,19.21
2022-07-27T02:35:57.323Z,19.22
2022-07-27T02:38:26.102Z,19.20
2022-07-27T02:40:53.864Z,19.63
2022-07-27T02:43:22.022Z,19.69
2022-07-27T02:45:51.941Z,19.45
2022-07-27T02:48:19.833Z,19.29
2022-07-27T02:50:48.244Z,19.41
2022-07-27T02:53:15.973Z,19.51
2022-07-27T02:55:43.726Z,19.50
2022-07-27T02:58:11.881Z,18.92
2022-07-27T03:00:39.633Z,18.51
2022-07-27T03:03:07.456Z,18.51
2022-07-27T03:05:35.575Z,19.08
2022-07-27T03:08:04.239Z,19.60
2022-07-27T03:10:32.704Z,19.57
2022-07-27T03:13:00.856Z,19.73
2022-07-27T03:15:29.859Z,19.34
2022-07-27T03:17:57.744Z,18.69
2022-07-27T03:20:25.995Z,18.94
2022-07-27T03:22:54.523Z,18.51
2022-07-27T03:25:22.584Z,17.99
2022-07-27T03:27:50.783Z,18.95
2022-07-27T03:30:18.701Z,19.25
2022-07-27T03:32:46.634Z,18.84
2022-07-27T03:35:15.363Z,19.30
2022-07-27T03:37:43.258Z,18.87
2022-07-27T03:40:12.042Z,19.50
2022-07-27T03:42:40.484Z,19.63
2022-07-27T03:45:08.862Z,19.18
2022-07-27T03:47:36.665Z,19.35
2022-07-27T03:50:05.143Z,19.23
2022-07-27T03:52:33.053Z,18.71
2022-07-27T03:55:00.823Z,19.60
2022-07-27T03:57:28.833Z,20.11
2022-07-27T03:59:56.642Z,20.10
2022-07-27T04:02:24.516Z,19.98
2022-07-27T04:04:52.625Z,19.56
2022-07-27T04:07:21.073Z,18.98
2022-07-27T04:09:48.912Z,18.97
2022-07-27T04:12:20.072Z,18.80
2022-07-27T04:14:48.125Z,19.41
2022-07-27T04:17:55.126Z,18.99
2022-07-27T04:20:04.844Z,19.82
2022-07-27T04:22:32.472Z,20.29
2022-07-27T04:25:00.228Z,19.58
2022-07-27T04:27:28.263Z,19.66
2022-07-27T04:29:56.084Z,20.40
2022-07-27T04:32:24.027Z,20.08
2022-07-27T04:34:52.080Z,20.17
2022-07-27T04:37:19.874Z,20.41
2022-07-27T04:39:47.791Z,20.69
2022-07-27T04:42:15.944Z,21.77
2022-07-27T04:44:43.777Z,21.45
2022-07-27T04:47:11.504Z,21.11
2022-07-27T04:49:39.794Z,21.75
2022-07-27T04:52:07.628Z,21.47
2022-07-27T04:54:35.394Z,21.84
2022-07-27T04:57:03.503Z,22.33
2022-07-27T04:59:31.232Z,22.01
2022-07-27T05:01:58.963Z,22.17
2022-07-27T05:04:27.167Z,22.70
2022-07-27T05:06:57.515Z,22.24
2022-07-27T05:09:25.323Z,22.01
2022-07-27T05:11:53.488Z,23.50
2022-07-27T05:14:21.926Z,22.44
2022-07-27T05:16:50.664Z,23.22
2022-07-27T05:19:19.040Z,22.42
2022-07-27T05:21:46.845Z,22.55
2022-07-27T05:24:14.634Z,23.23
2022-07-27T05:26:44.545Z,24.07
2022-07-27T05:29:12.568Z,24.98
2022-07-27T05:31:40.655Z,25.36
2022-07-27T05:34:08.814Z,24.35
2022-07-27T05:36:36.783Z,24.27
2022-07-27T05:39:04.553Z,24.58
2022-07-27T05:41:32.913Z,25.57
2022-07-27T05:44:00.645Z,25.81
2022-07-27T05:46:32.499Z,25.86
2022-07-27T05:49:01.023Z,25.43
2022-07-27T05:51:30.288Z,25.77
2022-07-27T05:53:59.136Z,25.88
2022-07-27T05:56:27.796Z,26.07
2022-07-27T05:58:55.644Z,27.24
2022-07-27T06:01:23.604Z,27.09
2022-07-27T06:03:51.775Z,27.17
2022-07-27T06:06:38.165Z,26.24
2022-07-27T06:09:06.584Z,26.21
2022-07-27T06:11:34.378Z,26.75
2022-07-27T06:14:02.112Z,27.20
2022-07-27T06:16:30.308Z,27.56
2022-07-27T06:18:58.105Z,27.96
2022-07-27T06:21:28.245Z,27.58
2022-07-27T06:23:56.375Z,27.39
2022-07-27T06:26:24.172Z,27.64
2022-07-27T06:28:53.113Z,27.83
2022-07-27T06:31:21.352Z,28.32
2022-07-27T06:33:52.211Z,29.05
2022-07-27T06:36:20.322Z,28.02
2022-07-27T06:38:49.193Z,28.21
2022-07-27T06:41:17.918Z,29.23
2022-07-27T06:43:45.837Z,29.03
2022-07-27T06:46:14.653Z,29.23
2022-07-27T06:48:42.623Z,29.09
2022-07-27T06:51:10.587Z,28.73
2022-07-27T06:53:38.876Z,29.39
2022-07-27T06:56:08.544Z,29.93
2022-07-27T06:58:37.820Z,30.48
2022-07-27T07:01:06.197Z,30.83
2022-07-27T07:03:34.223Z,30.37
2022-07-27T07:06:02.421Z,30.85
2022-07-27T07:08:31.117Z,30.48
2022-07-27T07:10:58.994Z,30.16
2022-07-27T07:13:27.466Z,30.74
2022-07-27T07:15:56.714Z,30.37
2022-07-27T07:18:24.527Z,30.25
2022-07-27T07:20:52.523Z,30.51
2022-07-27T07:23:20.927Z,30.26
2022-07-27T07:25:48.688Z,30.05
2022-07-27T07:28:16.535Z,30.71
2022-07-27T07:30:44.670Z,31.31
2022-07-27T07:33:12.666Z,31.64
2022-07-27T07:36:13.511Z,31.50
2022-07-27T07:38:29.742Z,31.70
2022-07-27T07:40:57.626Z,31.21
2022-07-27T07:43:25.465Z,31.29
2022-07-27T07:45:53.775Z,31.56
2022-07-27T07:48:22.397Z,32.29
2022-07-27T07:50:51.860Z,31.74
2022-07-27T07:53:24.930Z,32.33
2022-07-27T07:55:53.654Z,31.97
2022-07-27T07:58:21.830Z,32.16
2022-07-27T08:00:50.343Z,33.19
2022-07-27T08:03:19.361Z,33.37
2022-07-27T08:05:47.494Z,33.06
2022-07-27T08:08:15.568Z,33.04
2022-07-27T08:10:43.807Z,33.09
2022-07-27T08:13:11.584Z,32.99
2022-07-27T08:15:39.474Z,32.88
2022-07-27T08:18:07.669Z,32.49
2022-07-27T08:20:35.584Z,32.17
2022-07-27T08:23:03.873Z,32.72
2022-07-27T08:25:32.554Z,31.88
2022-07-27T08:28:02.720Z,32.07
2022-07-27T08:30:32.929Z,32.35
2022-07-27T08:33:03.630Z,33.00
2022-07-27T08:35:33.565Z,33.01
2022-07-27T08:38:03.173Z,32.95
2022-07-27T08:40:47.575Z,32.20
2022-07-27T08:43:24.967Z,33.63
2022-07-27T08:45:56.083Z,32.92
2022-07-27T08:48:29.620Z,33.85
2022-07-27T08:50:57.635Z,33.99
2022-07-27T08:53:26.051Z,33.53
2022-07-27T08:56:04.313Z,33.94
2022-07-27T08:58:32.866Z,33.76
2022-07-27T09:01:01.056Z,33.39
2022-07-27T09:03:29.197Z,33.76
2022-07-27T09:05:58.636Z,33.32
2022-07-27T09:08:30.457Z,33.11
2022-07-27T09:11:00.644Z,33.76
2022-07-27T09:13:33.722Z,32.51
2022-07-27T09:16:23.816Z,33.32
2022-07-27T09:18:59.633Z,34.30
2022-07-27T09:21:28.935Z,34.62
2022-07-27T09:24:18.083Z,34.10
2022-07-27T09:27:04.463Z,34.02
2022-07-27T09:29:35.979Z,34.91
2022-07-27T09:32:17.070Z,34.97
2022-07-27T09:34:45.817Z,34.07
2022-07-27T09:37:24.174Z,34.61
2022-07-27T09:40:10.904Z,34.37
2022-07-27T09:45:33.953Z,34.13
2022-07-27T09:48:20.796Z,34.04
2022-07-27T09:51:02.130Z,35.00
2022-07-27T09:53:42.800Z,34.92
2022-07-27T09:56:13.643Z,34.80
2022-07-27T09:58:44.606Z,34.66
2022-07-27T10:01:24.607Z,34.58
2022-07-27T10:03:55.303Z,35.02
2022-07-27T10:06:25.309Z,34.55
2022-07-27T10:08:55.864Z,35.58
2022-07-27T10:11:24.505Z,34.86
2022-07-27T10:13:54.645Z,33.78
2022-07-27T10:16:29.135Z,35.17
2022-07-27T10:19:08.585Z,34.58
2022-07-27T10:21:39.113Z,34.35
2022-07-27T10:24:10.118Z,34.52
2022-07-27T10:26:40.892Z,34.07
2022-07-27T10:29:15.053Z,34.99
2022-07-27T10:31:52.794Z,36.09
2022-07-27T10:34:39.703Z,36.33
2022-07-27T10:37:12.233Z,36.70
2022-07-27T10:39:51.069Z,35.12
2022-07-27T10:42:24.997Z,33.88
2022-07-27T10:45:03.514Z,35.98
2022-07-27T10:47:40.082Z,36.69
2022-07-27T10:50:16.908Z,35.91
2022-07-27T10:52:45.314Z,36.35
2022-07-27T10:55:31.887Z,36.18
2022-07-27T10:58:03.333Z,36.01
2022-07-27T11:00:53.998Z,35.71
2022-07-27T11:03:42.615Z,36.37
2022-07-27T11:06:33.164Z,36.56
2022-07-27T11:11:53.906Z,36.63
2022-07-27T11:14:30.345Z,35.53
2022-07-27T11:20:00.846Z,35.60
2022-07-27T11:23:26.678Z,35.35
2022-07-27T11:25:28.038Z,34.28
2022-07-27T11:28:00.060Z,35.00
2022-07-27T11:30:31.162Z,34.97
2022-07-27T11:33:04.672Z,35.11
2022-07-27T11:35:34.192Z,34.84
2022-07-27T11:38:05.536Z,34.11
2022-07-27T11:41:05.881Z,34.09
2022-07-27T11:43:45.153Z,34.13
2022-07-27T11:46:23.143Z,34.67
2022-07-27T11:49:09.877Z,35.93
2022-07-27T11:51:46.416Z,34.24
2022-07-27T11:54:26.025Z,34.12
2022-07-27T11:56:55.317Z,33.48
2022-07-27T11:59:28.782Z,33.05
2022-07-27T12:02:02.113Z,33.46
2022-07-27T12:04:35.171Z,33.00
2022-07-27T12:07:20.240Z,33.10
2022-07-27T12:09:52.915Z,34.59
2022-07-27T12:12:28.307Z,34.67
2022-07-27T12:15:11.624Z,34.74
2022-07-27T12:17:59.263Z,35.26
2022-07-27T12:20:35.392Z,34.62
2022-07-27T12:23:08.010Z,35.20
2022-07-27T12:25:36.809Z,34.72
2022-07-27T12:28:18.030Z,33.50
2022-07-27T12:30:50.807Z,34.02
2022-07-27T12:33:30.643Z,33.14
2022-07-27T12:36:00.020Z,32.71
2022-07-27T12:38:48.864Z,32.64
2022-07-27T12:41:28.035Z,32.80
2022-07-27T12:44:05.018Z,32.62
2022-07-27T12:46:33.379Z,33.81
2022-07-27T12:49:01.545Z,34.29
2022-07-27T12:51:29.493Z,34.84
2022-07-27T12:54:01.114Z,34.97
2022-07-27T12:56:29.096Z,33.27
2022-07-27T12:59:04.694Z,33.70
2022-07-27T13:01:33.186Z,33.99
2022-07-27T13:04:01.296Z,33.98
2022-07-27T13:06:30.268Z,33.81
2022-07-27T13:08:58.436Z,34.77
2022-07-27T13:11:26.597Z,33.88
2022-07-27T13:13:54.377Z,33.85
2022-07-27T13:16:22.436Z,33.30
2022-07-27T13:18:50.629Z,32.56
2022-07-27T13:21:19.221Z,33.50
2022-07-27T13:23:47.476Z,33.90
2022-07-27T13:26:15.778Z,33.69
2022-07-27T13:28:43.606Z,33.95
2022-07-27T13:31:11.972Z,33.98
2022-07-27T13:33:40.305Z,33.93
2022-07-27T13:36:09.950Z,33.40
2022-07-27T13:38:38.433Z,33.41
2022-07-27T13:41:07.606Z,32.78
2022-07-27T13:43:36.045Z,33.77
2022-07-27T13:46:04.112Z,33.74
2022-07-27T13:48:32.737Z,33.04
2022-07-27T13:51:01.156Z,33.40
2022-07-27T13:53:29.702Z,33.67
2022-07-27T13:55:57.985Z,34.36
2022-07-27T13:58:25.973Z,34.72
2022-07-27T14:00:54.333Z,33.98
2022-07-27T14:03:23.054Z,33.79
2022-07-27T14:05:53.204Z,33.66
2022-07-27T14:08:26.187Z,33.41
2022-07-27T14:10:54.347Z,33.60
2022-07-27T14:13:22.487Z,33.08
2022-07-27T14:15:52.750Z,33.74
2022-07-27T14:18:25.347Z,33.37
2022-07-27T14:20:54.745Z,33.61
2022-07-27T14:23:23.746Z,33.80
2022-07-27T14:25:51.955Z,33.61
2022-07-27T14:28:20.622Z,33.93
2022-07-27T14:30:49.175Z,33.61
2022-07-27T14:33:17.861Z,33.63
2022-07-27T14:35:46.633Z,33.76
2022-07-27T14:38:24.746Z,33.96
2022-07-27T14:40:58.213Z,33.85
2022-07-27T14:43:26.784Z,33.83
2022-07-27T14:45:54.705Z,34.15
2022-07-27T14:48:32.396Z,34.32
2022-07-27T18:13:39.393Z,28.02
2022-07-27T18:16:11.769Z,28.02
2022-07-27T18:18:43.073Z,26.67
2022-07-27T18:21:13.425Z,27.03
2022-07-27T18:23:41.391Z,27.23
2022-07-27T18:26:12.047Z,27.03
2022-07-27T18:28:40.704Z,27.08
2022-07-27T18:31:10.444Z,26.81
2022-07-27T18:33:40.637Z,26.66
2022-07-27T18:36:09.153Z,26.38
2022-07-27T18:38:37.794Z,26.54
2022-07-27T18:41:05.653Z,26.50
2022-07-27T18:43:33.984Z,26.35
2022-07-27T18:46:02.244Z,26.17
2022-07-27T18:48:30.125Z,25.97
2022-07-27T18:50:58.476Z,25.90
2022-07-27T18:53:26.376Z,25.87
2022-07-27T18:55:56.447Z,25.81
2022-07-27T18:58:25.397Z,26.14
2022-07-27T19:00:54.555Z,26.08
2022-07-27T19:03:24.623Z,25.65
2022-07-27T19:05:54.735Z,25.27
2022-07-27T19:08:24.045Z,25.58
2022-07-27T19:10:53.228Z,25.40
2022-07-27T19:13:22.563Z,25.09
2022-07-27T19:15:52.748Z,25.39
2022-07-27T19:18:20.996Z,25.43
2022-07-27T19:20:50.350Z,25.47
2022-07-27T19:23:18.292Z,25.47
2022-07-27T19:25:46.174Z,25.46
2022-07-27T19:28:19.692Z,25.51
2022-07-27T19:30:47.629Z,25.25
2022-07-27T19:33:16.316Z,24.96
2022-07-27T19:35:44.485Z,24.75
2022-07-27T19:38:13.293Z,25.06
2022-07-27T19:40:44.711Z,24.84
2022-07-27T19:43:13.684Z,24.94
2022-07-27T19:45:42.343Z,25.08
2022-07-27T19:48:10.863Z,24.54
2022-07-27T19:50:39.959Z,24.51
2022-07-27T19:53:08.595Z,24.87
2022-07-27T19:55:36.855Z,24.58
2022-07-27T19:58:04.812Z,24.82
2022-07-27T20:00:33.194Z,24.87
2022-07-27T20:03:01.468Z,24.66
2022-07-27T20:05:29.460Z,24.16
2022-07-27T20:07:57.358Z,24.33
2022-07-27T20:10:26.254Z,24.32
2022-07-27T20:12:54.135Z,24.58
2022-07-27T20:15:22.784Z,24.33
2022-07-27T20:17:51.439Z,24.36
2022-07-27T20:20:19.740Z,23.83
2022-07-27T20:22:47.949Z,23.82
2022-07-27T20:25:16.416Z,23.81
2022-07-27T20:27:45.623Z,23.84
2022-07-27T20:30:17.252Z,23.84
2022-07-27T20:32:47.848Z,24.01
2022-07-27T20:35:16.258Z,23.60
2022-07-27T20:37:44.834Z,23.96
2022-07-27T20:40:13.325Z,23.59
2022-07-27T20:42:41.975Z,24.15
2022-07-27T20:45:11.636Z,24.06
2022-07-27T20:47:40.065Z,23.79
2022-07-27T20:50:10.447Z,23.89
2022-07-27T20:52:40.024Z,23.98
2022-07-27T20:55:09.314Z,23.83
2022-07-27T20:57:38.025Z,23.74
2022-07-27T21:00:07.385Z,23.97
2022-07-27T21:02:35.990Z,24.37
2022-07-27T21:05:04.327Z,23.74
2022-07-27T21:07:32.108Z,23.49
2022-07-27T21:10:00.314Z,23.55
2022-07-27T21:12:28.123Z,23.13
2022-07-27T21:14:55.928Z,23.65
2022-07-27T21:17:24.135Z,23.42
2022-07-27T21:19:51.964Z,23.35
2022-07-27T21:22:20.675Z,23.37
2022-07-27T21:24:49.766Z,23.35
2022-07-27T21:27:20.979Z,23.78
2022-07-27T21:29:49.911Z,23.20
2022-07-27T21:32:18.347Z,23.51
2022-07-27T21:34:46.223Z,23.57
2022-07-27T21:37:14.405Z,23.33
2022-07-27T21:39:42.344Z,22.86
2022-07-27T21:42:10.061Z,23.42
2022-07-27T21:44:38.749Z,23.10
2022-07-27T21:47:13.147Z,23.00
2022-07-27T21:49:42.333Z,23.17
2022-07-27T21:52:11.466Z,23.34
2022-07-27T21:54:39.449Z,22.76
2022-07-27T21:57:07.575Z,23.11
2022-07-27T21:59:35.353Z,22.97
2022-07-27T22:02:03.286Z,22.94
2022-07-27T22:04:31.603Z,23.23
2022-07-27T22:06:59.905Z,23.32
2022-07-27T22:09:28.551Z,23.18
2022-07-27T22:11:56.806Z,22.84
2022-07-27T22:14:24.678Z,23.81
2022-07-27T22:16:53.268Z,23.62
2022-07-27T22:19:21.413Z,24.15
2022-07-27T22:21:49.497Z,23.81
2022-07-27T22:24:17.967Z,24.38
2022-07-27T22:26:46.208Z,23.95
2022-07-27T22:29:13.963Z,24.26
2022-07-27T22:31:42.199Z,24.28
2022-07-27T22:34:10.545Z,23.80
2022-07-27T22:36:38.607Z,23.53
2022-07-27T22:39:06.399Z,24.04
2022-07-27T22:41:34.768Z,24.29
2022-07-27T22:44:02.625Z,23.50
2022-07-27T22:46:30.372Z,24.10
2022-07-27T22:48:58.875Z,23.15
2022-07-27T22:51:26.748Z,23.66
2022-07-27T22:54:15.128Z,22.85
2022-07-27T22:56:43.316Z,22.70
2022-07-27T22:59:11.015Z,22.66
2022-07-27T23:01:46.474Z,22.26
2022-07-27T23:04:16.732Z,22.73
2022-07-27T23:06:45.684Z,22.95
2022-07-27T23:09:13.604Z,23.24
2022-07-27T23:11:42.198Z,23.18
2022-07-27T23:14:11.747Z,23.56
2022-07-27T23:16:39.975Z,23.71
2022-07-27T23:19:08.695Z,23.65
2022-07-27T23:21:37.489Z,23.96
2022-07-27T23:24:05.504Z,23.80
2022-07-27T23:26:33.626Z,23.44
2022-07-27T23:29:02.313Z,24.01
2022-07-27T23:31:30.255Z,23.90
2022-07-27T23:33:58.145Z,23.43
2022-07-27T23:36:26.455Z,23.67
2022-07-27T23:38:54.334Z,23.77
2022-07-27T23:41:22.123Z,24.17
2022-07-27T23:43:50.235Z,24.71
2022-07-27T23:46:18.108Z,23.63
2022-07-27T23:48:45.867Z,24.01
2022-07-27T23:51:18.616Z,23.97
2022-07-27T23:53:47.768Z,23.81
2022-07-27T23:56:16.325Z,23.32
2022-07-27T23:58:45.024Z,23.49
